Time;durP1;ratioP1;P1;durP2;ratioP2;P2;SDS_P1;SDS_P2;PMS_P1;PMS_P2;Temp;Humidity;BMP_temperature;BMP_pressure;BME280_temperature;BME280_humidity;BME280_pressure;Samples;Min_cycle;Max_cycle;Signal;HPM_P1;HPM_P2
2022/11/26 00:01:11;;;;;;;22.50;7.77;;;;;;;;;;4992162;28;20256;-61
2022/11/26 00:03:37;;;;;;;15.50;6.15;;;;;;;;;;4991621;28;20225;-61
2022/11/26 00:06:02;;;;;;;19.55;6.60;;;;;;;;;;4991651;28;20312;-61
2022/11/26 00:08:29;;;;;;;17.23;6.72;;;;;;;;;;4996816;28;20244;-61
2022/11/26 00:10:55;;;;;;;18.90;6.60;;;;;;;;;;4995024;28;20271;-61
2022/11/26 00:13:21;;;;;;;18.93;6.63;;;;;;;;;;4995396;28;20226;-61
2022/11/26 00:15:47;;;;;;;16.97;6.53;;;;;;;;;;5003316;28;20213;-62
2022/11/26 00:18:13;;;;;;;15.23;6.13;;;;;;;;;;4978780;28;20225;-62
2022/11/26 00:20:39;;;;;;;15.83;6.37;;;;;;;;;;4984296;28;20606;-62
2022/11/26 00:23:04;;;;;;;18.27;6.78;;;;;;;;;;5005410;28;20232;-62
2022/11/26 00:25:37;;;;;;;23.30;8.37;;;;;;;;;;4994767;28;20245;-62
2022/11/26 00:28:02;;;;;;;19.90;7.73;;;;;;;;;;5003298;28;20251;-62
2022/11/26 00:30:28;;;;;;;17.40;7.73;;;;;;;;;;5005614;28;20216;-62
2022/11/26 00:32:53;;;;;;;15.52;6.28;;;;;;;;;;5003581;28;20277;-62
2022/11/26 00:35:19;;;;;;;15.27;5.93;;;;;;;;;;4982675;28;20213;-62
2022/11/26 00:37:46;;;;;;;15.95;6.05;;;;;;;;;;4978996;28;20213;-62
2022/11/26 00:40:14;;;;;;;18.17;6.50;;;;;;;;;;4985401;28;20217;-62
2022/11/26 00:42:39;;;;;;;16.87;6.17;;;;;;;;;;5000199;28;20250;-62
2022/11/26 00:45:12;;;;;;;18.85;6.78;;;;;;;;;;5004439;28;20684;-61
2022/11/26 00:47:37;;;;;;;14.98;6.25;;;;;;;;;;5002782;28;20271;-62
2022/11/26 00:50:03;;;;;;;13.35;5.50;;;;;;;;;;5002439;28;20283;-62
2022/11/26 00:52:31;;;;;;;16.70;6.43;;;;;;;;;;4985758;28;20236;-62
2022/11/26 00:54:57;;;;;;;15.55;6.57;;;;;;;;;;5001036;28;20728;-62
2022/11/26 00:57:22;;;;;;;18.77;6.20;;;;;;;;;;4983681;28;20506;-62
2022/11/26 00:59:47;;;;;;;17.23;6.03;;;;;;;;;;5011940;28;20228;-62
2022/11/26 01:02:12;;;;;;;17.13;6.00;;;;;;;;;;4995764;28;20236;-61
2022/11/26 01:04:38;;;;;;;18.13;6.57;;;;;;;;;;4998260;28;20580;-62
2022/11/26 01:07:03;;;;;;;20.17;7.37;;;;;;;;;;5004567;28;20228;-62
2022/11/26 01:09:28;;;;;;;20.23;8.40;;;;;;;;;;5004077;28;20802;-62
2022/11/26 01:11:53;;;;;;;22.13;8.27;;;;;;;;;;5004790;28;20266;-62
2022/11/26 01:14:19;;;;;;;18.52;7.45;;;;;;;;;;5004427;28;20208;-62
2022/11/26 01:16:44;;;;;;;20.10;7.90;;;;;;;;;;4988423;28;20223;-62
2022/11/26 01:19:10;;;;;;;18.33;8.10;;;;;;;;;;4999136;28;20223;-62
2022/11/26 01:21:35;;;;;;;17.30;7.53;;;;;;;;;;5014708;28;20209;-62
2022/11/26 01:24:00;;;;;;;20.55;7.43;;;;;;;;;;5013875;28;20220;-62
2022/11/26 01:26:26;;;;;;;17.97;6.97;;;;;;;;;;5014417;28;20660;-62
2022/11/26 01:28:52;;;;;;;17.02;8.10;;;;;;;;;;5013587;28;20219;-62
2022/11/26 01:31:18;;;;;;;19.30;7.95;;;;;;;;;;5013486;28;20226;-62
2022/11/26 01:33:43;;;;;;;14.90;7.50;;;;;;;;;;5014815;28;20221;-62
2022/11/26 01:36:21;;;;;;;22.50;8.67;;;;;;;;;;5013456;28;20214;-62
2022/11/26 01:38:47;;;;;;;20.63;8.00;;;;;;;;;;5013364;28;20220;-62
2022/11/26 01:41:19;;;;;;;18.00;8.47;;;;;;;;;;5014031;28;20245;-62
2022/11/26 01:43:45;;;;;;;15.20;6.77;;;;;;;;;;5003939;28;20735;-62
2022/11/26 01:46:12;;;;;;;19.10;7.20;;;;;;;;;;5004532;28;20240;-62
2022/11/26 01:48:37;;;;;;;17.13;7.40;;;;;;;;;;4994716;28;20213;-62
2022/11/26 01:51:04;;;;;;;16.17;6.93;;;;;;;;;;4992568;28;20232;-62
2022/11/26 01:53:31;;;;;;;19.67;7.47;;;;;;;;;;4994669;28;20225;-62
2022/11/26 01:55:58;;;;;;;18.27;7.43;;;;;;;;;;4999219;28;20260;-62
2022/11/26 01:58:27;;;;;;;18.43;7.60;;;;;;;;;;4985881;28;20304;-62
2022/11/26 02:00:52;;;;;;;15.80;6.93;;;;;;;;;;4981715;28;20522;-62
2022/11/26 02:03:18;;;;;;;17.58;7.03;;;;;;;;;;4976450;28;20229;-62
2022/11/26 02:05:44;;;;;;;14.70;6.82;;;;;;;;;;4975690;28;20221;-62
2022/11/26 02:08:10;;;;;;;16.90;7.10;;;;;;;;;;4977785;28;20223;-62
2022/11/26 02:10:35;;;;;;;13.93;7.10;;;;;;;;;;4997168;28;20236;-62
2022/11/26 02:13:00;;;;;;;21.90;8.87;;;;;;;;;;4983473;28;20672;-62
2022/11/26 02:15:26;;;;;;;15.87;7.23;;;;;;;;;;4997481;28;21001;-62
2022/11/26 02:17:54;;;;;;;16.80;7.23;;;;;;;;;;5002253;28;20675;-62
2022/11/26 02:20:25;;;;;;;20.33;7.93;;;;;;;;;;5002948;28;20304;-62
2022/11/26 02:22:54;;;;;;;19.57;7.23;;;;;;;;;;5002559;28;20227;-62
2022/11/26 02:25:21;;;;;;;18.67;6.97;;;;;;;;;;4984150;28;20213;-62
2022/11/26 02:27:52;;;;;;;15.10;7.20;;;;;;;;;;4975613;28;20223;-62
2022/11/26 02:30:18;;;;;;;16.90;6.93;;;;;;;;;;4994593;28;20418;-62
2022/11/26 02:32:43;;;;;;;18.37;8.10;;;;;;;;;;4997299;28;20256;-62
2022/11/26 02:35:11;;;;;;;15.73;7.07;;;;;;;;;;5002841;28;20892;-62
2022/11/26 02:37:38;;;;;;;18.07;6.83;;;;;;;;;;5001845;28;20242;-62
2022/11/26 02:40:04;;;;;;;20.60;7.20;;;;;;;;;;4997725;28;20783;-62
2022/11/26 02:42:31;;;;;;;19.03;8.13;;;;;;;;;;5003017;28;20231;-62
2022/11/26 02:44:57;;;;;;;22.90;8.43;;;;;;;;;;5001484;28;20794;-62
2022/11/26 02:47:23;;;;;;;13.60;7.23;;;;;;;;;;4992479;28;20797;-62
2022/11/26 02:49:48;;;;;;;18.37;7.50;;;;;;;;;;4992875;28;20216;-62
2022/11/26 02:52:14;;;;;;;19.03;8.10;;;;;;;;;;4993206;28;20236;-62
2022/11/26 02:54:39;;;;;;;21.73;7.57;;;;;;;;;;4994889;28;20217;-62
2022/11/26 02:57:05;;;;;;;16.17;8.13;;;;;;;;;;4985212;28;20304;-62
2022/11/26 02:59:30;;;;;;;19.80;7.37;;;;;;;;;;5001053;28;20239;-62
2022/11/26 03:01:55;;;;;;;15.93;7.50;;;;;;;;;;5002212;28;20592;-62
2022/11/26 03:04:23;;;;;;;16.37;7.50;;;;;;;;;;5002396;28;20212;-62
2022/11/26 03:06:48;;;;;;;17.03;7.20;;;;;;;;;;4998180;28;20212;-62
2022/11/26 03:09:15;;;;;;;18.50;7.50;;;;;;;;;;4996737;28;20643;-62
2022/11/26 03:11:40;;;;;;;15.23;7.30;;;;;;;;;;4995519;28;20213;-62
2022/11/26 03:14:06;;;;;;;17.90;8.03;;;;;;;;;;4993776;28;20209;-61
2022/11/26 03:16:31;;;;;;;23.13;8.30;;;;;;;;;;4982436;28;20220;-63
2022/11/26 03:18:56;;;;;;;19.70;7.87;;;;;;;;;;4983361;28;20223;-62
2022/11/26 03:21:21;;;;;;;15.17;6.93;;;;;;;;;;4983169;28;20557;-62
2022/11/26 03:23:47;;;;;;;16.73;7.28;;;;;;;;;;4982372;28;20304;-62
2022/11/26 03:26:12;;;;;;;17.48;7.78;;;;;;;;;;4983064;28;20327;-62
2022/11/26 03:28:37;;;;;;;22.67;7.63;;;;;;;;;;5001366;28;20220;-62
2022/11/26 03:31:02;;;;;;;14.90;7.27;;;;;;;;;;5001844;28;20350;-62
2022/11/26 03:33:28;;;;;;;18.40;7.43;;;;;;;;;;4995541;28;20223;-62
2022/11/26 03:35:53;;;;;;;11.97;6.90;;;;;;;;;;4993635;28;21057;-62
2022/11/26 03:38:18;;;;;;;18.23;7.10;;;;;;;;;;4994379;28;20213;-62
2022/11/26 03:40:44;;;;;;;16.30;6.97;;;;;;;;;;4987645;28;20221;-62
2022/11/26 03:43:09;;;;;;;16.07;7.57;;;;;;;;;;4985967;28;20315;-62
2022/11/26 03:45:34;;;;;;;14.45;6.72;;;;;;;;;;4988813;28;20213;-62
2022/11/26 03:47:59;;;;;;;18.30;7.90;;;;;;;;;;5006619;28;20227;-62
2022/11/26 03:50:25;;;;;;;20.03;7.87;;;;;;;;;;5005020;28;20220;-62
2022/11/26 03:52:50;;;;;;;17.03;7.27;;;;;;;;;;5004970;28;20692;-62
2022/11/26 03:55:15;;;;;;;16.73;7.43;;;;;;;;;;4981938;28;20220;-62
2022/11/26 03:57:41;;;;;;;20.53;7.13;;;;;;;;;;4978758;28;20209;-62
2022/11/26 04:00:08;;;;;;;16.43;7.33;;;;;;;;;;4977708;28;20232;-62
2022/11/26 04:02:33;;;;;;;16.20;7.27;;;;;;;;;;5001265;28;20334;-62
2022/11/26 04:04:58;;;;;;;14.00;7.10;;;;;;;;;;5005691;28;20307;-62
2022/11/26 04:07:23;;;;;;;16.87;7.13;;;;;;;;;;4993174;28;20220;-62
2022/11/26 04:09:49;;;;;;;16.67;7.37;;;;;;;;;;4987015;28;20213;-62
2022/11/26 04:12:14;;;;;;;17.67;7.77;;;;;;;;;;4985530;28;20223;-62
2022/11/26 04:14:39;;;;;;;22.23;9.27;;;;;;;;;;4986989;28;20225;-62
2022/11/26 04:17:04;;;;;;;19.53;7.47;;;;;;;;;;4983164;28;20225;-62
2022/11/26 04:19:30;;;;;;;15.53;6.40;;;;;;;;;;4978476;28;20240;-62
2022/11/26 04:21:55;;;;;;;16.30;8.03;;;;;;;;;;4978390;28;20240;-62
2022/11/26 04:24:20;;;;;;;15.27;7.03;;;;;;;;;;4981233;28;20223;-62
2022/11/26 04:26:46;;;;;;;19.90;7.27;;;;;;;;;;4985694;28;20736;-62
2022/11/26 04:29:11;;;;;;;14.87;6.93;;;;;;;;;;4986470;28;20213;-62
2022/11/26 04:31:36;;;;;;;17.07;7.73;;;;;;;;;;4985919;28;20680;-62
2022/11/26 04:34:01;;;;;;;13.13;6.80;;;;;;;;;;4985614;28;20217;-63
2022/11/26 04:36:27;;;;;;;15.27;6.70;;;;;;;;;;4986296;28;20245;-62
2022/11/26 04:38:52;;;;;;;19.60;7.20;;;;;;;;;;5004894;28;20231;-62
2022/11/26 04:41:17;;;;;;;14.73;6.50;;;;;;;;;;4978297;28;20232;-62
2022/11/26 04:43:42;;;;;;;17.30;6.37;;;;;;;;;;4977996;28;20581;-62
2022/11/26 04:46:08;;;;;;;13.27;6.57;;;;;;;;;;4977197;28;20248;-62
2022/11/26 04:48:33;;;;;;;11.70;6.30;;;;;;;;;;4985890;28;20224;-62
2022/11/26 04:50:58;;;;;;;14.40;6.57;;;;;;;;;;5004809;28;20758;-62
2022/11/26 04:53:24;;;;;;;13.33;7.00;;;;;;;;;;4998098;28;20221;-62
2022/11/26 04:55:49;;;;;;;16.93;7.77;;;;;;;;;;4986405;28;20209;-62
2022/11/26 04:58:15;;;;;;;15.17;8.20;;;;;;;;;;5019374;28;20212;-62
2022/11/26 05:00:40;;;;;;;15.60;6.83;;;;;;;;;;5004483;28;20255;-61
2022/11/26 05:03:05;;;;;;;15.90;6.70;;;;;;;;;;4999169;28;20750;-62
2022/11/26 05:05:31;;;;;;;16.55;7.13;;;;;;;;;;4997017;28;20215;-61
2022/11/26 05:07:56;;;;;;;18.77;7.70;;;;;;;;;;4979797;28;20423;-62
2022/11/26 05:10:21;;;;;;;16.13;7.07;;;;;;;;;;4982841;28;20209;-61
2022/11/26 05:12:47;;;;;;;15.03;6.97;;;;;;;;;;4985464;28;20275;-62
2022/11/26 05:15:12;;;;;;;13.87;6.97;;;;;;;;;;4984877;28;21126;-62
2022/11/26 05:17:37;;;;;;;20.33;8.10;;;;;;;;;;4985034;28;20217;-62
2022/11/26 05:20:03;;;;;;;20.33;7.23;;;;;;;;;;4999388;28;20985;-62
2022/11/26 05:22:28;;;;;;;17.73;8.37;;;;;;;;;;4984576;28;20225;-62
2022/11/26 05:24:54;;;;;;;14.63;7.67;;;;;;;;;;4982617;28;20260;-62
2022/11/26 05:27:19;;;;;;;15.20;7.93;;;;;;;;;;4977585;28;20506;-62
2022/11/26 05:29:44;;;;;;;51.43;8.57;;;;;;;;;;5010002;28;20302;-62
2022/11/26 05:32:09;;;;;;;14.47;7.87;;;;;;;;;;4998890;28;20216;-62
2022/11/26 05:34:35;;;;;;;61.27;8.20;;;;;;;;;;5004720;28;20235;-62
2022/11/26 05:37:00;;;;;;;15.63;6.77;;;;;;;;;;5003867;28;20589;-62
2022/11/26 05:39:25;;;;;;;13.10;6.53;;;;;;;;;;5000148;28;20217;-62
2022/11/26 05:41:50;;;;;;;12.30;6.47;;;;;;;;;;4985220;28;20280;-62
2022/11/26 05:44:16;;;;;;;11.10;6.73;;;;;;;;;;4983796;28;20217;-62
2022/11/26 05:46:41;;;;;;;9.83;6.60;;;;;;;;;;4985051;28;20696;-62
2022/11/26 05:49:06;;;;;;;9.80;6.47;;;;;;;;;;4994363;28;20200;-62
2022/11/26 05:51:32;;;;;;;8.87;6.47;;;;;;;;;;4995638;28;20213;-62
2022/11/26 05:53:57;;;;;;;8.03;5.90;;;;;;;;;;4985394;28;20268;-62
2022/11/26 05:56:22;;;;;;;18.40;6.33;;;;;;;;;;4984015;28;20213;-63
2022/11/26 05:58:47;;;;;;;24.23;6.97;;;;;;;;;;4984924;28;20287;-62
2022/11/26 06:01:13;;;;;;;21.57;6.63;;;;;;;;;;4986406;28;20268;-62
2022/11/26 06:03:38;;;;;;;12.87;6.40;;;;;;;;;;5002910;28;20274;-62
2022/11/26 06:06:03;;;;;;;23.58;7.88;;;;;;;;;;5001508;28;20220;-62
2022/11/26 06:08:29;;;;;;;17.47;7.07;;;;;;;;;;5001934;28;20225;-62
2022/11/26 06:10:54;;;;;;;10.10;5.90;;;;;;;;;;4998145;28;20224;-62
2022/11/26 06:13:19;;;;;;;38.57;7.93;;;;;;;;;;4995432;28;21089;-62
2022/11/26 06:15:44;;;;;;;18.93;6.83;;;;;;;;;;4987325;28;20213;-62
2022/11/26 06:18:10;;;;;;;8.80;5.97;;;;;;;;;;4980231;28;20735;-62
2022/11/26 06:20:35;;;;;;;8.37;6.27;;;;;;;;;;4984483;28;20500;-62
2022/11/26 06:23:00;;;;;;;8.90;6.07;;;;;;;;;;5001721;28;20322;-62
2022/11/26 06:25:26;;;;;;;15.25;6.25;;;;;;;;;;4990894;28;20221;-62
2022/11/26 06:27:51;;;;;;;9.67;6.03;;;;;;;;;;4984548;28;20213;-62
2022/11/26 06:30:17;;;;;;;10.85;6.15;;;;;;;;;;4983693;28;20221;-62
2022/11/26 06:32:42;;;;;;;9.77;6.63;;;;;;;;;;4997949;28;20307;-61
2022/11/26 06:35:07;;;;;;;15.33;7.20;;;;;;;;;;4994995;28;20649;-61
2022/11/26 06:37:33;;;;;;;24.40;7.77;;;;;;;;;;4995362;28;20219;-62
2022/11/26 06:39:58;;;;;;;15.57;7.40;;;;;;;;;;4988953;28;20213;-61
2022/11/26 06:42:23;;;;;;;19.27;6.65;;;;;;;;;;5002779;28;20236;-61
2022/11/26 06:44:48;;;;;;;17.03;7.30;;;;;;;;;;5003108;28;20216;-61
2022/11/26 06:47:14;;;;;;;19.93;8.00;;;;;;;;;;4984287;28;20680;-62
2022/11/26 06:49:39;;;;;;;15.97;7.40;;;;;;;;;;5003133;28;20615;-62
2022/11/26 06:52:04;;;;;;;12.90;7.57;;;;;;;;;;4983966;28;21401;-62
2022/11/26 06:54:30;;;;;;;18.80;8.30;;;;;;;;;;4982935;28;20225;-62
2022/11/26 06:56:55;;;;;;;11.67;7.47;;;;;;;;;;4976797;28;20217;-62
2022/11/26 06:59:20;;;;;;;19.23;9.03;;;;;;;;;;4974919;28;20576;-62
2022/11/26 07:01:46;;;;;;;15.90;8.13;;;;;;;;;;4983130;28;20209;-62
2022/11/26 07:04:11;;;;;;;22.30;9.30;;;;;;;;;;4998949;28;20208;-62
2022/11/26 07:06:36;;;;;;;28.17;9.17;;;;;;;;;;5004918;28;20212;-62
2022/11/26 07:09:04;;;;;;;17.20;9.60;;;;;;;;;;5011734;28;20481;-63
2022/11/26 07:11:29;;;;;;;24.42;11.27;;;;;;;;;;5012332;28;20434;-63
2022/11/26 07:13:55;;;;;;;23.17;11.77;;;;;;;;;;5011819;28;20897;-64
2022/11/26 07:16:20;;;;;;;19.50;9.73;;;;;;;;;;4995375;28;20220;-64
2022/11/26 07:18:46;;;;;;;22.23;10.53;;;;;;;;;;4981950;28;20217;-64
2022/11/26 07:21:12;;;;;;;18.38;10.27;;;;;;;;;;4981672;28;20284;-64
2022/11/26 07:23:37;;;;;;;20.83;10.17;;;;;;;;;;4985212;28;20654;-64
2022/11/26 07:26:02;;;;;;;20.63;10.27;;;;;;;;;;5008521;28;20271;-64
2022/11/26 07:28:28;;;;;;;19.10;9.33;;;;;;;;;;5011921;28;20223;-64
2022/11/26 07:30:53;;;;;;;21.30;10.67;;;;;;;;;;5012668;28;20307;-64
2022/11/26 07:33:18;;;;;;;19.43;10.10;;;;;;;;;;5012395;28;20220;-64
2022/11/26 07:35:44;;;;;;;21.58;10.57;;;;;;;;;;5011635;28;20597;-62
2022/11/26 07:38:09;;;;;;;21.07;11.57;;;;;;;;;;5012389;28;20266;-62
2022/11/26 07:40:34;;;;;;;20.08;10.70;;;;;;;;;;5000657;28;20286;-63
2022/11/26 07:42:59;;;;;;;16.50;9.85;;;;;;;;;;5008381;28;20702;-63
2022/11/26 07:45:25;;;;;;;16.67;10.13;;;;;;;;;;5008631;28;20228;-63
2022/11/26 07:47:50;;;;;;;34.27;12.50;;;;;;;;;;4998192;28;20282;-62
2022/11/26 07:50:15;;;;;;;20.07;10.30;;;;;;;;;;4997199;28;20683;-64
2022/11/26 07:52:40;;;;;;;21.07;10.83;;;;;;;;;;4992539;28;20267;-64
2022/11/26 07:55:06;;;;;;;17.57;11.13;;;;;;;;;;4989460;28;20205;-64
2022/11/26 07:57:31;;;;;;;18.37;10.53;;;;;;;;;;4989095;28;20205;-64
2022/11/26 07:59:56;;;;;;;14.87;10.63;;;;;;;;;;4992204;28;20279;-63
2022/11/26 08:02:22;;;;;;;26.30;11.60;;;;;;;;;;4987941;28;20220;-63
2022/11/26 08:04:47;;;;;;;23.77;12.27;;;;;;;;;;5001385;28;20216;-63
2022/11/26 08:07:12;;;;;;;24.37;12.43;;;;;;;;;;5004227;28;20224;-62
2022/11/26 08:09:37;;;;;;;30.23;10.93;;;;;;;;;;5009791;28;20243;-63
2022/11/26 08:12:03;;;;;;;19.97;10.40;;;;;;;;;;4995054;28;20577;-62
2022/11/26 08:14:28;;;;;;;33.63;14.77;;;;;;;;;;4998310;28;20691;-61
2022/11/26 08:16:54;;;;;;;26.50;14.50;;;;;;;;;;5000994;28;20221;-63
2022/11/26 08:19:19;;;;;;;24.67;12.67;;;;;;;;;;4991892;28;20235;-63
2022/11/26 08:21:44;;;;;;;28.77;14.40;;;;;;;;;;4992341;28;20220;-63
2022/11/26 08:24:11;;;;;;;26.03;12.30;;;;;;;;;;5003075;28;20220;-63
2022/11/26 08:26:36;;;;;;;25.17;11.00;;;;;;;;;;4992891;28;20217;-63
2022/11/26 08:29:02;;;;;;;25.75;11.45;;;;;;;;;;4995163;28;20757;-63
2022/11/26 08:31:27;;;;;;;33.47;12.33;;;;;;;;;;4993989;28;20216;-63
2022/11/26 08:33:58;;;;;;;25.60;11.67;;;;;;;;;;4995870;28;20220;-63
2022/11/26 08:36:24;;;;;;;21.50;10.80;;;;;;;;;;4995312;28;20217;-62
2022/11/26 08:38:49;;;;;;;28.77;12.27;;;;;;;;;;4995409;28;20588;-62
2022/11/26 08:41:15;;;;;;;26.17;12.37;;;;;;;;;;5004842;28;20660;-62
2022/11/26 08:43:40;;;;;;;31.50;12.60;;;;;;;;;;5010925;28;20239;-62
2022/11/26 08:46:05;;;;;;;24.17;14.20;;;;;;;;;;5005916;28;20610;-62
2022/11/26 08:48:31;;;;;;;27.07;12.43;;;;;;;;;;5005827;28;20285;-62
2022/11/26 08:50:58;;;;;;;25.27;12.13;;;;;;;;;;5005138;28;20204;-62
2022/11/26 08:53:23;;;;;;;31.95;13.40;;;;;;;;;;5002805;28;20304;-62
2022/11/26 08:55:48;;;;;;;25.90;12.80;;;;;;;;;;5012550;28;20243;-62
2022/11/26 08:58:13;;;;;;;24.80;14.07;;;;;;;;;;5006049;28;20209;-62
2022/11/26 09:00:39;;;;;;;33.72;14.75;;;;;;;;;;5004681;28;20232;-62
2022/11/26 09:03:05;;;;;;;25.83;13.70;;;;;;;;;;4997370;28;20221;-62
2022/11/26 09:05:30;;;;;;;29.70;15.00;;;;;;;;;;4994947;28;20250;-63
2022/11/26 09:07:55;;;;;;;26.50;14.27;;;;;;;;;;4994352;28;20308;-62
2022/11/26 09:10:21;;;;;;;28.25;14.70;;;;;;;;;;4995170;28;20556;-62
2022/11/26 09:12:46;;;;;;;25.57;14.30;;;;;;;;;;4995324;28;20206;-62
2022/11/26 09:15:11;;;;;;;30.03;14.50;;;;;;;;;;4984785;28;20244;-62
2022/11/26 09:17:37;;;;;;;25.40;13.20;;;;;;;;;;4975830;28;20272;-63
2022/11/26 09:20:02;;;;;;;24.63;14.83;;;;;;;;;;4978019;28;20201;-62
2022/11/26 09:22:28;;;;;;;24.55;14.20;;;;;;;;;;4984788;28;20568;-62
2022/11/26 09:24:54;;;;;;;25.90;13.23;;;;;;;;;;4982889;28;20582;-63
2022/11/26 09:27:19;;;;;;;33.27;14.70;;;;;;;;;;4984124;28;20210;-62
2022/11/26 09:29:44;;;;;;;27.63;14.32;;;;;;;;;;4985535;28;20638;-62
2022/11/26 09:32:09;;;;;;;27.48;14.25;;;;;;;;;;4983187;28;20214;-62
2022/11/26 09:34:35;;;;;;;27.97;13.27;;;;;;;;;;4983881;28;20259;-62
2022/11/26 09:37:00;;;;;;;26.77;13.23;;;;;;;;;;5010498;28;20217;-62
2022/11/26 09:39:26;;;;;;;25.80;13.05;;;;;;;;;;5008529;28;20400;-62
2022/11/26 09:42:00;;;;;;;29.10;13.60;;;;;;;;;;5008795;28;20218;-62
2022/11/26 09:44:33;;;;;;;30.33;14.93;;;;;;;;;;5004780;28;20723;-62
2022/11/26 09:46:59;;;;;;;30.45;13.80;;;;;;;;;;4990402;28;20221;-62
2022/11/26 09:49:24;;;;;;;28.87;14.80;;;;;;;;;;4972735;28;20755;-62
2022/11/26 09:51:50;;;;;;;25.58;13.70;;;;;;;;;;4979320;28;20257;-62
2022/11/26 09:54:16;;;;;;;28.25;14.00;;;;;;;;;;4973376;28;20577;-62
2022/11/26 09:56:42;;;;;;;28.57;13.57;;;;;;;;;;4996812;28;20220;-62
2022/11/26 09:59:08;;;;;;;29.90;14.13;;;;;;;;;;5013645;28;20299;-62
2022/11/26 10:01:33;;;;;;;24.87;12.53;;;;;;;;;;5004554;28;20220;-62
2022/11/26 10:03:58;;;;;;;23.27;13.05;;;;;;;;;;5004907;28;20217;-62
2022/11/26 10:06:35;;;;;;;26.83;13.30;;;;;;;;;;4994164;28;20671;-62
2022/11/26 10:09:00;;;;;;;28.45;14.05;;;;;;;;;;4992463;28;20217;-63
2022/11/26 10:11:30;;;;;;;23.00;12.77;;;;;;;;;;4993744;28;20312;-62
2022/11/26 10:14:02;;;;;;;26.83;13.27;;;;;;;;;;4992891;28;20216;-62
2022/11/26 10:16:32;;;;;;;24.33;13.83;;;;;;;;;;5006871;28;20220;-62
2022/11/26 10:19:00;;;;;;;27.03;14.30;;;;;;;;;;5012367;28;20213;-62
2022/11/26 10:21:31;;;;;;;29.73;14.20;;;;;;;;;;5005282;28;20231;-62
2022/11/26 10:23:57;;;;;;;27.33;13.35;;;;;;;;;;5011396;28;20229;-62
2022/11/26 10:26:24;;;;;;;27.77;13.20;;;;;;;;;;5011923;28;20228;-62
2022/11/26 10:28:51;;;;;;;28.88;14.35;;;;;;;;;;5012341;28;20613;-62
2022/11/26 10:31:19;;;;;;;29.17;14.17;;;;;;;;;;5011083;28;20212;-62
2022/11/26 10:33:47;;;;;;;25.97;12.80;;;;;;;;;;5013317;28;20299;-62
2022/11/26 10:36:16;;;;;;;27.30;13.23;;;;;;;;;;5011793;28;20212;-62
2022/11/26 10:38:42;;;;;;;28.67;13.50;;;;;;;;;;5011137;28;20223;-62
2022/11/26 10:41:07;;;;;;;24.38;12.85;;;;;;;;;;4994758;28;20209;-62
2022/11/26 10:43:32;;;;;;;32.03;13.23;;;;;;;;;;4993677;28;20229;-62
2022/11/26 10:45:57;;;;;;;26.52;13.10;;;;;;;;;;5000739;28;20216;-62
2022/11/26 10:48:25;;;;;;;26.95;13.45;;;;;;;;;;5012606;28;20287;-62
2022/11/26 10:50:57;;;;;;;26.70;13.02;;;;;;;;;;5013106;28;20746;-62
2022/11/26 10:53:23;;;;;;;22.37;10.93;;;;;;;;;;5011934;28;20209;-62
2022/11/26 10:55:48;;;;;;;24.00;11.73;;;;;;;;;;5003588;28;20210;-62
2022/11/26 10:58:14;;;;;;;21.83;11.30;;;;;;;;;;5003367;28;20216;-62
2022/11/26 11:00:42;;;;;;;23.95;12.30;;;;;;;;;;5003001;28;20235;-62
2022/11/26 11:03:14;;;;;;;26.08;11.40;;;;;;;;;;5011873;28;20232;-62
2022/11/26 11:05:39;;;;;;;25.13;11.37;;;;;;;;;;5003801;28;20213;-62
2022/11/26 11:08:04;;;;;;;27.00;11.60;;;;;;;;;;5002558;28;20274;-62
2022/11/26 11:10:30;;;;;;;20.80;10.23;;;;;;;;;;5012829;28;20657;-62
2022/11/26 11:12:59;;;;;;;32.28;11.80;;;;;;;;;;5006770;28;20213;-62
2022/11/26 11:15:26;;;;;;;28.25;12.10;;;;;;;;;;4992664;28;20217;-62
2022/11/26 11:17:54;;;;;;;25.70;10.23;;;;;;;;;;4991792;28;20678;-62
2022/11/26 11:20:23;;;;;;;22.63;8.73;;;;;;;;;;4990792;28;20220;-62
2022/11/26 11:22:55;;;;;;;22.17;8.70;;;;;;;;;;4991860;28;20221;-62
2022/11/26 11:25:21;;;;;;;22.23;8.95;;;;;;;;;;4991980;28;20221;-62
2022/11/26 11:27:46;;;;;;;23.63;8.30;;;;;;;;;;4991164;28;20213;-62
2022/11/26 11:30:23;;;;;;;21.52;8.88;;;;;;;;;;4991356;28;20220;-62
2022/11/26 11:32:49;;;;;;;25.63;8.70;;;;;;;;;;4992787;28;20212;-62
2022/11/26 11:35:22;;;;;;;22.92;8.10;;;;;;;;;;4991666;28;20567;-62
2022/11/26 11:37:48;;;;;;;23.90;8.07;;;;;;;;;;4992991;28;20228;-63
2022/11/26 11:40:13;;;;;;;25.52;7.78;;;;;;;;;;4997163;28;20208;-64
2022/11/26 11:42:39;;;;;;;21.13;8.30;;;;;;;;;;4997365;28;20633;-64
2022/11/26 11:45:04;;;;;;;22.10;7.60;;;;;;;;;;4991346;28;20304;-64
2022/11/26 11:47:36;;;;;;;23.92;8.88;;;;;;;;;;4991473;28;20635;-64
2022/11/26 11:50:18;;;;;;;20.10;8.35;;;;;;;;;;4991790;28;20588;-64
2022/11/26 11:52:45;;;;;;;20.27;7.40;;;;;;;;;;4993108;28;20217;-64
2022/11/26 11:55:11;;;;;;;26.60;8.77;;;;;;;;;;4991419;28;20217;-63
2022/11/26 11:57:36;;;;;;;18.80;7.57;;;;;;;;;;5005442;28;20274;-64
2022/11/26 12:00:13;;;;;;;26.05;7.70;;;;;;;;;;5012314;28;20703;-64
2022/11/26 12:02:46;;;;;;;21.25;7.53;;;;;;;;;;5011857;28;20231;-63
2022/11/26 12:05:12;;;;;;;24.55;7.20;;;;;;;;;;5007750;28;20260;-64
2022/11/26 12:07:38;;;;;;;30.98;8.13;;;;;;;;;;4996854;28;20217;-64
2022/11/26 12:10:08;;;;;;;19.25;7.03;;;;;;;;;;4995594;28;20303;-64
2022/11/26 12:12:35;;;;;;;25.83;7.68;;;;;;;;;;4996253;28;20217;-63
2022/11/26 12:15:10;;;;;;;19.42;7.32;;;;;;;;;;4997370;28;20570;-63
2022/11/26 12:17:42;;;;;;;25.50;7.93;;;;;;;;;;5015103;28;20208;-63
2022/11/26 12:20:17;;;;;;;19.67;6.60;;;;;;;;;;4997944;28;20585;-63
2022/11/26 12:22:56;;;;;;;22.33;6.78;;;;;;;;;;5016000;28;20232;-63
2022/11/26 12:25:22;;;;;;;17.90;6.30;;;;;;;;;;5014795;28;20212;-63
2022/11/26 12:27:50;;;;;;;22.02;6.50;;;;;;;;;;5015660;28;20556;-63
2022/11/26 12:30:16;;;;;;;22.10;6.53;;;;;;;;;;5014669;28;20228;-63
2022/11/26 12:32:44;;;;;;;23.80;6.00;;;;;;;;;;5014312;28;20219;-63
2022/11/26 12:35:11;;;;;;;22.50;6.88;;;;;;;;;;5015379;28;20676;-63
2022/11/26 12:37:38;;;;;;;18.73;6.18;;;;;;;;;;5014981;28;20219;-63
2022/11/26 12:40:05;;;;;;;19.50;6.10;;;;;;;;;;5004700;28;20236;-63
2022/11/26 12:42:35;;;;;;;19.42;6.57;;;;;;;;;;4994645;28;20244;-63
2022/11/26 12:45:04;;;;;;;20.08;6.28;;;;;;;;;;4994897;28;20224;-64
2022/11/26 12:47:30;;;;;;;19.20;6.13;;;;;;;;;;5005969;28;20295;-63
2022/11/26 12:49:55;;;;;;;17.92;5.88;;;;;;;;;;5006187;28;20244;-63
2022/11/26 12:52:27;;;;;;;20.23;6.95;;;;;;;;;;5014109;28;20228;-63
2022/11/26 12:55:06;;;;;;;20.67;6.32;;;;;;;;;;5015535;28;20231;-63
2022/11/26 12:57:33;;;;;;;22.05;6.40;;;;;;;;;;5002215;28;20577;-63
2022/11/26 12:59:59;;;;;;;19.17;5.93;;;;;;;;;;5013169;28;20229;-65
2022/11/26 13:02:27;;;;;;;16.85;5.68;;;;;;;;;;5004512;28;20295;-63
2022/11/26 13:04:52;;;;;;;18.17;5.93;;;;;;;;;;4991347;28;20213;-63
2022/11/26 13:07:36;;;;;;;16.33;5.15;;;;;;;;;;4994400;28;20219;-63
2022/11/26 13:10:16;;;;;;;15.40;6.18;;;;;;;;;;5006843;28;20337;-63
2022/11/26 13:12:45;;;;;;;19.85;5.93;;;;;;;;;;5009397;28;20216;-63
2022/11/26 13:15:22;;;;;;;18.80;5.95;;;;;;;;;;4992710;28;20209;-63
2022/11/26 13:17:48;;;;;;;21.42;5.53;;;;;;;;;;4995229;28;20208;-63
2022/11/26 13:20:24;;;;;;;20.95;5.90;;;;;;;;;;4994163;28;20209;-63
2022/11/26 13:23:06;;;;;;;19.65;6.10;;;;;;;;;;4995422;28;20228;-63
2022/11/26 13:25:40;;;;;;;22.08;5.95;;;;;;;;;;4993797;28;20209;-62
2022/11/26 13:28:17;;;;;;;19.83;6.20;;;;;;;;;;4992633;28;20324;-63
2022/11/26 13:30:45;;;;;;;20.10;6.30;;;;;;;;;;4993678;28;20239;-63
2022/11/26 13:33:19;;;;;;;25.25;6.15;;;;;;;;;;4997419;28;20229;-63
2022/11/26 13:35:56;;;;;;;18.27;5.47;;;;;;;;;;4991024;28;20212;-63
2022/11/26 13:38:37;;;;;;;18.45;5.50;;;;;;;;;;4984366;28;20244;-63
2022/11/26 13:41:09;;;;;;;19.00;6.03;;;;;;;;;;4988397;28;20221;-64
2022/11/26 13:43:48;;;;;;;20.38;5.63;;;;;;;;;;5008078;28;20220;-64
2022/11/26 13:46:15;;;;;;;18.25;6.07;;;;;;;;;;5002924;28;20212;-64
2022/11/26 13:48:54;;;;;;;20.10;8.48;;;;;;;;;;5005275;28;20299;-64
2022/11/26 13:51:32;;;;;;;21.17;7.25;;;;;;;;;;4990114;28;20224;-64
2022/11/26 13:54:01;;;;;;;16.20;5.65;;;;;;;;;;5006370;28;20612;-64
2022/11/26 13:56:26;;;;;;;19.10;5.72;;;;;;;;;;4988949;28;20328;-64
2022/11/26 13:58:54;;;;;;;21.10;5.95;;;;;;;;;;4979954;28;20874;-64
2022/11/26 14:01:38;;;;;;;18.05;5.25;;;;;;;;;;4980373;28;20706;-64
2022/11/26 14:04:06;;;;;;;20.75;5.88;;;;;;;;;;4985497;28;20221;-64
2022/11/26 14:06:31;;;;;;;17.67;5.93;;;;;;;;;;4984794;28;20736;-64
2022/11/26 14:08:57;;;;;;;14.68;4.97;;;;;;;;;;4968604;28;20241;-64
2022/11/26 14:11:53;;;;;;;16.05;5.60;;;;;;;;;;4985678;28;20211;-64
2022/11/26 14:14:27;;;;;;;18.70;5.88;;;;;;;;;;4971846;28;20320;-64
2022/11/26 14:16:59;;;;;;;16.55;5.63;;;;;;;;;;4968145;28;20225;-64
2022/11/26 14:19:44;;;;;;;18.67;5.35;;;;;;;;;;4961483;28;20224;-64
2022/11/26 14:22:15;;;;;;;27.20;6.10;;;;;;;;;;4979189;28;20288;-64
2022/11/26 14:24:46;;;;;;;20.13;5.68;;;;;;;;;;4980970;28;20296;-64